Time;durP1;ratioP1;P1;durP2;ratioP2;P2;SDS_P1;SDS_P2;PMS_P1;PMS_P2;Temp;Humidity;BMP_temperature;BMP_pressure;BME280_temperature;BME280_humidity;BME280_pressure;Samples;Min_cycle;Max_cycle;Signal;HPM_P1;HPM_P2
2022/01/26 00:07:43;;;;;;;34.58;20.95;;;;;;;0.89;90.88;97480.41;1672943;85;21124;-81
2022/01/26 00:10:08;;;;;;;25.40;15.93;;;;;;;0.88;91.09;97476.21;1688287;85;20996;-80
2022/01/26 00:12:34;;;;;;;31.57;19.95;;;;;;;0.89;91.02;97477.03;1688268;85;21321;-80
2022/01/26 00:15:00;;;;;;;32.55;19.23;;;;;;;0.86;90.95;97478.05;1708186;82;20943;-80
2022/01/26 00:17:25;;;;;;;32.20;20.37;;;;;;;0.85;90.98;97472.56;1717200;83;20911;-80
2022/01/26 00:22:36;;;;;;;34.30;20.17;;;;;;;0.92;91.17;97469.61;1716847;83;21037;-80
2022/01/26 00:25:06;;;;;;;35.65;21.50;;;;;;;0.92;91.08;97475.55;1686683;83;21420;-80
2022/01/26 00:27:29;;;;;;;34.50;19.90;;;;;;;0.89;91.07;97474.47;1712391;83;20963;-80
2022/01/26 00:30:00;;;;;;;33.98;19.77;;;;;;;0.85;91.15;97476.86;1715822;83;21025;-80
2022/01/26 00:40:36;;;;;;;31.20;20.27;;;;;;;0.81;91.40;97468.56;1716610;83;20994;-79
2022/01/26 00:43:05;;;;;;;27.40;18.15;;;;;;;0.81;91.36;97471.13;1716617;83;20979;-79
2022/01/26 00:45:33;;;;;;;33.20;19.57;;;;;;;0.80;91.43;97474.56;1716482;82;21400;-79
2022/01/26 00:47:53;;;;;;;32.70;19.87;;;;;;;0.79;91.53;97472.11;1716343;83;21015;-79
2022/01/26 00:50:19;;;;;;;30.37;18.80;;;;;;;0.75;91.59;97471.48;1717153;83;20958;-79
2022/01/26 00:52:52;;;;;;;27.55;16.27;;;;;;;0.70;91.57;97475.25;1717083;83;20990;-80
2022/01/26 00:55:15;;;;;;;26.20;17.52;;;;;;;0.68;91.99;97477.08;1716356;83;20963;-80
2022/01/26 00:57:42;;;;;;;28.30;17.12;;;;;;;0.65;91.69;97476.81;1712505;83;21030;-80
2022/01/26 01:00:17;;;;;;;28.35;18.12;;;;;;;0.66;91.85;97478.91;1709719;84;20963;-80
2022/01/26 01:02:43;;;;;;;29.27;17.87;;;;;;;0.68;91.78;97483.02;1709893;84;20998;-80
2022/01/26 01:05:23;;;;;;;29.23;17.57;;;;;;;0.69;91.77;97484.66;1709473;84;21041;-80
2022/01/26 01:07:42;;;;;;;28.10;19.55;;;;;;;0.73;91.89;97483.55;1707654;84;21465;-79
2022/01/26 01:10:08;;;;;;;27.65;18.23;;;;;;;0.76;91.84;97483.81;1709300;84;21015;-79
2022/01/26 01:12:39;;;;;;;30.15;19.82;;;;;;;0.75;91.74;97479.61;1709523;84;20938;-79
2022/01/26 01:15:01;;;;;;;27.42;16.70;;;;;;;0.75;91.93;97474.03;1708960;84;21034;-79
2022/01/26 01:17:35;;;;;;;25.55;15.58;;;;;;;0.72;91.86;97476.79;1706954;82;20985;-79
2022/01/26 01:22:46;;;;;;;27.52;17.80;;;;;;;0.68;91.92;97474.06;1649128;85;21022;-80
2022/01/26 01:32:39;;;;;;;23.00;17.30;;;;;;;0.77;91.84;97467.09;1681170;85;21001;-81
2022/01/26 01:35:00;;;;;;;24.75;16.93;;;;;;;0.77;91.84;97463.25;1680261;85;21005;-81
2022/01/26 01:37:26;;;;;;;27.52;18.82;;;;;;;0.80;92.00;97468.17;1681310;85;21364;-81
2022/01/26 01:39:51;;;;;;;24.57;17.27;;;;;;;0.83;92.02;97464.17;1681177;85;20989;-81
2022/01/26 01:42:18;;;;;;;27.45;17.90;;;;;;;0.84;91.91;97464.98;1681161;85;21281;-81
2022/01/26 01:44:44;;;;;;;28.47;17.95;;;;;;;0.83;91.64;97460.79;1681199;85;20970;-80
2022/01/26 01:47:09;;;;;;;23.90;15.70;;;;;;;0.84;91.74;97461.16;1681146;85;21348;-81
2022/01/26 01:49:36;;;;;;;23.70;16.97;;;;;;;0.84;91.54;97455.58;1681230;85;20990;-81
2022/01/26 01:52:06;;;;;;;32.88;19.40;;;;;;;0.84;91.54;97450.91;1681140;85;20974;-81
2022/01/26 01:54:32;;;;;;;29.35;18.87;;;;;;;0.85;91.63;97455.12;1681104;85;21022;-81
2022/01/26 01:56:58;;;;;;;29.63;19.02;;;;;;;0.82;91.59;97454.85;1681434;85;21057;-81
2022/01/26 01:59:31;;;;;;;29.40;18.60;;;;;;;0.79;91.76;97449.90;1681505;85;21364;-81
2022/01/26 02:01:57;;;;;;;28.52;18.98;;;;;;;0.78;91.78;97450.81;1681561;85;21001;-81
2022/01/26 02:04:23;;;;;;;29.12;18.35;;;;;;;0.79;91.67;97451.17;1681465;85;21018;-81
2022/01/26 02:06:48;;;;;;;27.75;17.30;;;;;;;0.79;91.54;97446.06;1681506;85;20977;-81
2022/01/26 02:09:14;;;;;;;26.68;17.73;;;;;;;0.80;91.66;97443.05;1681426;85;21049;-81
2022/01/26 02:11:48;;;;;;;25.32;17.32;;;;;;;0.82;91.52;97442.06;1681402;85;21370;-81
2022/01/26 02:14:22;;;;;;;26.80;18.10;;;;;;;0.82;91.58;97445.08;1681336;85;20980;-81
2022/01/26 02:16:50;;;;;;;25.80;16.12;;;;;;;0.81;91.66;97442.13;1680395;85;21364;-81
2022/01/26 03:09:16;;;;;;;28.38;18.32;;;;;;;0.88;91.83;97422.47;1669530;85;21458;-81
2022/01/26 03:11:43;;;;;;;26.95;17.02;;;;;;;0.85;91.72;97421.39;1688799;85;21067;-81
2022/01/26 03:15:15;;;;;;;25.68;17.17;;;;;;;0.82;91.78;97420.31;1688970;85;21084;-81
2022/01/26 03:16:51;;;;;;;25.62;17.25;;;;;;;0.79;91.70;97420.48;1655238;85;20973;-81
2022/01/26 03:19:23;;;;;;;23.45;15.68;;;;;;;0.79;91.73;97416.64;1681838;83;21375;-81
2022/01/26 03:29:54;;;;;;;25.25;18.25;;;;;;;0.93;91.74;97420.08;1661505;86;21088;-81
2022/01/26 03:34:36;;;;;;;28.55;19.00;;;;;;;0.88;91.69;97416.08;1660828;86;21430;-81
2022/01/26 03:37:07;;;;;;;28.27;18.65;;;;;;;0.87;91.71;97409.32;1661196;86;21027;-81
2022/01/26 03:39:38;;;;;;;22.17;15.28;;;;;;;0.88;91.65;97412.70;1660369;86;21055;-81
2022/01/26 03:42:08;;;;;;;21.52;14.80;;;;;;;0.87;91.63;97414.90;1660144;86;21011;-81
2022/01/26 03:44:34;;;;;;;21.25;14.95;;;;;;;0.88;91.60;97410.14;1654350;86;21463;-81
2022/01/26 03:47:01;;;;;;;23.12;15.20;;;;;;;0.87;91.64;97409.32;1657608;86;21031;-81
2022/01/26 03:49:26;;;;;;;23.98;14.75;;;;;;;0.87;91.70;97408.50;1661282;86;21407;-81
2022/01/26 03:51:52;;;;;;;21.60;14.70;;;;;;;0.87;91.82;97408.50;1670925;85;21012;-81
2022/01/26 03:54:19;;;;;;;20.15;14.73;;;;;;;0.85;91.82;97404.77;1669495;85;21047;-81
2022/01/26 03:56:45;;;;;;;18.80;14.83;;;;;;;0.89;91.89;97406.66;1688910;85;20981;-81
2022/01/26 03:59:11;;;;;;;21.05;15.35;;;;;;;0.86;91.56;97406.41;1686825;85;21075;-81
2022/01/26 04:01:37;;;;;;;20.62;14.45;;;;;;;0.85;91.66;97405.22;1684507;85;21032;-81
2022/01/26 04:04:03;;;;;;;19.25;14.78;;;;;;;0.88;91.58;97406.30;1684827;85;21368;-81
2022/01/26 04:06:30;;;;;;;20.35;14.53;;;;;;;0.87;91.49;97407.22;1684545;85;21035;-81
2022/01/26 04:08:56;;;;;;;24.75;15.45;;;;;;;0.86;91.62;97408.14;1684485;85;21072;-81
2022/01/26 04:11:33;;;;;;;21.17;14.93;;;;;;;0.87;91.65;97405.94;1684420;85;21056;-81
2022/01/26 04:13:51;;;;;;;20.00;15.15;;;;;;;0.83;91.65;97400.66;1683222;85;20989;-81
2022/01/26 04:16:17;;;;;;;23.95;14.78;;;;;;;0.80;91.64;97405.95;1684745;85;21407;-81
2022/01/26 04:18:43;;;;;;;20.57;15.18;;;;;;;0.78;91.66;97409.06;1684688;85;21040;-81
2022/01/26 04:21:25;;;;;;;22.73;14.30;;;;;;;0.76;91.66;97406.60;1684710;85;20988;-81
2022/01/26 04:23:53;;;;;;;18.30;12.73;;;;;;;0.78;91.77;97400.93;1678420;85;21051;-81
2022/01/26 04:26:24;;;;;;;21.80;15.32;;;;;;;0.78;91.71;97404.77;1694228;84;21056;-81
2022/01/26 04:28:50;;;;;;;20.82;14.43;;;;;;;0.83;91.92;97409.16;1683301;85;20997;-81
2022/01/26 04:31:11;;;;;;;22.35;15.95;;;;;;;0.83;91.78;97409.16;1683650;85;20993;-81
2022/01/26 04:33:37;;;;;;;20.70;14.38;;;;;;;0.83;91.82;97401.94;1684563;85;21367;-81
2022/01/26 04:36:07;;;;;;;19.30;14.38;;;;;;;0.81;91.77;97410.14;1684618;85;20997;-81
2022/01/26 04:38:38;;;;;;;18.70;13.88;;;;;;;0.80;91.79;97411.88;1684383;85;21004;-81
2022/01/26 04:43:28;;;;;;;17.57;12.65;;;;;;;0.83;91.76;97418.11;1663222;85;21113;-81
2022/01/26 04:45:53;;;;;;;19.50;14.20;;;;;;;0.83;91.74;97416.02;1684227;85;21000;-81
2022/01/26 04:48:19;;;;;;;20.02;14.28;;;;;;;0.77;91.62;97408.25;1662962;85;21044;-81
2022/01/26 04:50:46;;;;;;;24.55;15.88;;;;;;;0.76;91.64;97409.63;1688594;84;21438;-81
2022/01/26 04:53:11;;;;;;;20.95;15.58;;;;;;;0.75;91.85;97406.70;1669979;85;21051;-81
2022/01/26 04:55:37;;;;;;;22.90;15.93;;;;;;;0.72;91.89;97410.73;1680325;85;21044;-81
2022/01/26 04:58:03;;;;;;;22.37;15.18;;;;;;;0.70;91.99;97409.55;1691263;84;21039;-81
2022/01/26 05:00:29;;;;;;;20.85;15.03;;;;;;;0.71;92.06;97407.81;1697278;84;21023;-81
2022/01/26 05:02:54;;;;;;;20.48;15.38;;;;;;;0.71;92.01;97411.66;1696971;84;20948;-81
2022/01/26 05:05:20;;;;;;;20.20;15.18;;;;;;;0.73;91.95;97407.27;1697061;84;21099;-81
2022/01/26 05:07:46;;;;;;;21.80;15.60;;;;;;;0.75;91.93;97406.70;1696761;85;21090;-81
2022/01/26 05:10:12;;;;;;;21.05;15.90;;;;;;;0.76;92.04;97404.05;1696878;84;21131;-81
2022/01/26 05:12:39;;;;;;;37.35;23.45;;;;;;;0.79;92.01;97405.59;1697516;84;21687;-81
2022/01/26 05:15:05;;;;;;;26.33;17.92;;;;;;;0.78;92.08;97400.93;1696890;84;21122;-81
2022/01/26 05:17:31;;;;;;;26.00;16.62;;;;;;;0.80;92.14;97399.55;1697144;84;20983;-81
2022/01/26 05:19:59;;;;;;;23.18;15.95;;;;;;;0.82;92.30;97401.13;1696949;84;21007;-81
2022/01/26 05:22:24;;;;;;;20.77;14.55;;;;;;;0.82;92.01;97396.00;1696975;83;21040;-81
2022/01/26 05:24:52;;;;;;;22.62;16.77;;;;;;;0.85;92.03;97397.09;1696437;84;21058;-81
2022/01/26 05:27:19;;;;;;;20.52;15.15;;;;;;;0.84;91.94;97390.33;1696860;84;20979;-81
2022/01/26 05:29:45;;;;;;;26.45;18.82;;;;;;;0.83;92.11;97388.69;1696969;84;20980;-81
2022/01/26 05:32:10;;;;;;;27.17;19.35;;;;;;;0.84;92.10;97390.79;1696890;84;21336;-81
2022/01/26 05:34:36;;;;;;;24.47;16.77;;;;;;;0.83;92.15;97393.81;1696999;84;20976;-81
2022/01/26 05:37:02;;;;;;;27.82;17.12;;;;;;;0.84;92.13;97386.48;1697089;84;20980;-81
2022/01/26 05:39:28;;;;;;;24.30;15.95;;;;;;;0.86;92.05;97391.05;1697032;84;21364;-81
2022/01/26 05:41:54;;;;;;;215.80;101.53;;;;;;;0.88;91.99;97394.78;1697055;84;21370;-81
2022/01/26 05:44:19;;;;;;;109.00;53.68;;;;;;;0.88;91.87;97386.66;1696851;84;20988;-82
2022/01/26 05:46:48;;;;;;;55.20;29.92;;;;;;;0.88;91.95;97381.99;1696932;84;21017;-81
2022/01/26 05:49:13;;;;;;;23.30;15.83;;;;;;;0.89;92.07;97386.19;1697356;83;20988;-81
2022/01/26 05:51:40;;;;;;;37.00;22.73;;;;;;;0.87;92.05;97381.63;1694535;83;20995;-81
2022/01/26 05:54:07;;;;;;;24.00;16.48;;;;;;;0.86;91.99;97380.00;1679298;84;21355;-81
2022/01/26 05:56:33;;;;;;;63.80;28.02;;;;;;;0.85;91.99;97382.19;1697777;83;20995;-81
2022/01/26 05:58:59;;;;;;;67.90;30.10;;;;;;;0.86;92.05;97380.00;1709773;83;21374;-81
2022/01/26 06:01:25;;;;;;;35.50;19.95;;;;;;;0.88;91.96;97379.44;1717078;83;20978;-81
2022/01/26 06:03:51;;;;;;;31.57;19.07;;;;;;;0.91;92.00;97381.80;1716423;84;21053;-81
2022/01/26 06:06:17;;;;;;;26.70;15.90;;;;;;;0.93;92.09;97379.95;1716860;83;21313;-81
2022/01/26 06:08:43;;;;;;;18.25;13.03;;;;;;;0.94;91.96;97379.49;1717003;83;20947;-81
2022/01/26 06:11:08;;;;;;;33.83;16.23;;;;;;;0.87;91.87;97377.80;1717273;83;20938;-81
2022/01/26 06:13:34;;;;;;;25.80;15.83;;;;;;;0.86;91.89;97376.16;1691005;83;21408;-81
2022/01/26 06:16:01;;;;;;;37.25;20.88;;;;;;;0.88;91.95;97385.83;1716415;84;21062;-81
2022/01/26 06:18:27;;;;;;;29.42;19.35;;;;;;;0.91;91.94;97389.47;1717261;83;21371;-81
2022/01/26 06:20:53;;;;;;;53.87;32.30;;;;;;;0.88;91.65;97380.25;1717342;83;21054;-81
2022/01/26 06:23:19;;;;;;;45.80;27.98;;;;;;;0.88;91.71;97379.44;1717303;84;20970;-81
2022/01/26 06:25:45;;;;;;;43.75;25.20;;;;;;;0.87;91.85;97373.95;1716897;84;21037;-81
2022/01/26 06:28:13;;;;;;;39.30;21.17;;;;;;;0.86;91.96;97376.16;1717179;83;21025;-81
2022/01/26 06:30:39;;;;;;;19.60;12.45;;;;;;;0.88;92.12;97381.99;1716839;83;20989;-81
2022/01/26 06:33:05;;;;;;;18.10;11.90;;;;;;;0.87;91.92;97376.52;1717009;83;20951;-81
2022/01/26 06:35:31;;;;;;;17.77;12.50;;;;;;;0.88;91.91;97378.16;1717355;83;21404;-81
2022/01/26 06:37:57;;;;;;;26.37;17.45;;;;;;;0.88;91.84;97375.59;1690203;83;20985;-82
2022/01/26 06:40:24;;;;;;;36.33;25.50;;;;;;;0.90;91.91;97378.87;1717181;83;20998;-81
2022/01/26 06:42:56;;;;;;;106.92;62.98;;;;;;;0.93;91.91;97376.58;1717248;83;21025;-81
2022/01/26 06:45:24;;;;;;;35.13;20.50;;;;;;;0.93;91.90;97376.11;1715636;83;20997;-81
2022/01/26 06:50:19;;;;;;;29.37;18.15;;;;;;;0.88;91.91;97381.53;1692498;83;21009;-81
2022/01/26 06:52:46;;;;;;;23.05;14.13;;;;;;;0.89;91.98;97378.52;1701462;82;20982;-81
2022/01/26 06:55:13;;;;;;;20.40;14.83;;;;;;;0.88;91.93;97378.16;1694121;83;20989;-81
2022/01/26 06:57:39;;;;;;;21.70;12.85;;;;;;;0.88;91.95;97379.44;1688683;85;20996;-81
2022/01/26 07:00:06;;;;;;;28.83;17.57;;;;;;;0.89;91.91;97382.35;1681343;85;21345;-81
2022/01/26 07:02:32;;;;;;;28.60;22.62;;;;;;;0.93;91.98;97379.13;1680726;85;20986;-81
2022/01/26 07:04:58;;;;;;;28.35;20.40;;;;;;;0.93;91.99;97376.58;1680811;85;21029;-81
2022/01/26 07:07:24;;;;;;;34.95;22.02;;;;;;;0.97;91.99;97382.67;1680745;85;21369;-81
2022/01/26 07:09:49;;;;;;;31.90;21.77;;;;;;;1.00;91.91;97380.41;1681148;85;21021;-81
2022/01/26 07:12:15;;;;;;;33.50;21.73;;;;;;;1.00;91.93;97382.95;1681239;85;20997;-81
2022/01/26 07:20:55;;;;;;;21.05;13.65;;;;;;;1.03;92.09;97371.24;1680822;85;20990;-80
2022/01/26 07:22:37;;;;;;;18.32;15.03;;;;;;;1.03;91.96;97370.78;1677082;85;21655;-80
2022/01/26 07:25:04;;;;;;;18.75;13.53;;;;;;;1.00;91.83;97367.61;1681150;85;20954;-81
2022/01/26 07:27:30;;;;;;;38.40;28.47;;;;;;;1.01;91.90;97371.34;1681406;85;20982;-81
2022/01/26 07:29:56;;;;;;;15.95;12.28;;;;;;;1.03;91.81;97375.08;1681070;85;20981;-81
2022/01/26 07:32:24;;;;;;;18.52;11.10;;;;;;;1.03;91.77;97372.52;1681233;85;21062;-82
2022/01/26 07:34:50;;;;;;;15.03;11.12;;;;;;;1.00;91.61;97377.84;1681303;85;20962;-81
2022/01/26 07:37:17;;;;;;;19.25;12.58;;;;;;;0.98;91.80;97374.11;1681336;85;20953;-81
2022/01/26 07:39:47;;;;;;;19.32;13.95;;;;;;;0.99;91.84;97381.32;1681212;85;21017;-81
2022/01/26 07:42:11;;;;;;;21.35;15.28;;;;;;;0.97;91.91;97380.11;1680677;85;21510;-81
2022/01/26 07:44:37;;;;;;;20.25;14.55;;;;;;;0.98;91.96;97377.94;1681069;85;20998;-81
2022/01/26 07:47:03;;;;;;;17.82;15.43;;;;;;;1.01;91.91;97381.58;1681305;85;21039;-81
2022/01/26 07:49:29;;;;;;;20.30;15.28;;;;;;;1.05;91.93;97381.73;1682134;85;20998;-81
2022/01/26 07:51:55;;;;;;;27.48;19.37;;;;;;;1.08;91.83;97379.44;1681385;85;20962;-82
2022/01/26 07:54:21;;;;;;;22.80;15.65;;;;;;;1.11;91.88;97382.61;1681198;85;20955;-82
2022/01/26 07:56:48;;;;;;;35.78;20.10;;;;;;;1.17;91.98;97383.52;1680599;85;21069;-81
2022/01/26 07:59:14;;;;;;;24.45;16.15;;;;;;;1.16;91.80;97379.31;1672046;85;21422;-82
2022/01/26 08:01:40;;;;;;;23.05;16.62;;;;;;;1.14;91.74;97374.76;1668250;86;21108;-81
2022/01/26 08:04:05;;;;;;;22.58;16.50;;;;;;;1.12;91.67;97380.41;1668830;86;21057;-81
2022/01/26 08:06:31;;;;;;;21.23;15.65;;;;;;;1.13;91.60;97376.93;1669109;86;20991;-81
2022/01/26 08:08:57;;;;;;;21.55;17.40;;;;;;;1.15;91.67;97377.67;1685156;83;21028;-81
2022/01/26 08:11:24;;;;;;;18.05;14.20;;;;;;;1.22;91.70;97374.71;1668729;86;21501;-81
2022/01/26 08:13:51;;;;;;;23.47;16.95;;;;;;;1.29;91.51;97378.03;1669888;85;21067;-81
2022/01/26 08:16:18;;;;;;;23.57;18.70;;;;;;;1.32;91.57;97377.86;1669139;85;21078;-82
2022/01/26 08:18:44;;;;;;;24.37;18.10;;;;;;;1.32;91.53;97380.42;1670415;85;21052;-82
2022/01/26 08:21:10;;;;;;;23.80;17.15;;;;;;;1.34;91.55;97376.48;1668951;85;21422;-81
2022/01/26 08:23:37;;;;;;;21.93;15.03;;;;;;;1.30;91.28;97370.75;1669017;85;21087;-81
2022/01/26 08:26:04;;;;;;;20.72;15.10;;;;;;;1.27;91.20;97370.10;1668743;85;21414;-81
2022/01/26 08:28:39;;;;;;;18.95;14.23;;;;;;;1.30;91.28;97369.47;1669064;86;21030;-81
2022/01/26 08:31:03;;;;;;;19.00;13.58;;;;;;;1.31;91.22;97367.72;1669322;85;21136;-81
2022/01/26 08:33:29;;;;;;;18.70;12.37;;;;;;;1.31;91.20;97369.00;1669020;85;21439;-81
2022/01/26 08:35:55;;;;;;;19.27;12.78;;;;;;;1.31;91.26;97365.16;1669479;85;21119;-81
2022/01/26 08:38:21;;;;;;;20.12;14.15;;;;;;;1.28;91.19;97370.45;1670072;85;21038;-81
2022/01/26 08:40:47;;;;;;;23.42;15.48;;;;;;;1.28;91.34;97367.90;1669078;85;21169;-81
2022/01/26 08:43:14;;;;;;;24.82;16.25;;;;;;;1.29;91.35;97369.08;1669480;85;21083;-81
2022/01/26 08:45:40;;;;;;;23.57;16.00;;;;;;;1.30;91.24;97367.33;1668852;86;21498;-81
2022/01/26 08:48:05;;;;;;;27.60;17.57;;;;;;;1.38;91.43;97368.95;1669012;85;20980;-81
2022/01/26 08:50:32;;;;;;;26.48;16.32;;;;;;;1.43;91.27;97372.02;1669088;85;21015;-81
2022/01/26 08:52:58;;;;;;;29.87;19.05;;;;;;;1.49;91.25;97378.86;1669494;85;21026;-81
2022/01/26 08:55:24;;;;;;;24.05;16.65;;;;;;;1.58;91.26;97378.69;1669001;85;21052;-81
2022/01/26 08:57:50;;;;;;;22.27;16.30;;;;;;;1.59;91.11;97379.52;1669072;85;21083;-81
2022/01/26 09:00:19;;;;;;;20.68;14.75;;;;;;;1.55;90.77;97386.59;1688630;84;21096;-81
2022/01/26 09:02:46;;;;;;;20.95;14.95;;;;;;;1.52;90.79;97384.23;1681543;85;21018;-81
2022/01/26 09:05:12;;;;;;;21.48;14.33;;;;;;;1.49;90.76;97385.72;1681036;85;21002;-82
2022/01/26 09:07:40;;;;;;;23.92;16.17;;;;;;;1.51;90.82;97389.00;1687978;82;21006;-81
2022/01/26 09:10:06;;;;;;;24.70;16.65;;;;;;;1.55;90.85;97390.43;1698051;84;21025;-81
2022/01/26 09:12:35;;;;;;;21.65;17.10;;;;;;;1.60;90.79;97390.11;1680287;85;21002;-81
2022/01/26 09:15:05;;;;;;;23.20;16.20;;;;;;;1.60;90.67;97395.23;1680972;83;20993;-81
2022/01/26 09:17:30;;;;;;;25.85;17.65;;;;;;;1.63;90.89;97393.32;1680843;85;21009;-81
2022/01/26 09:19:58;;;;;;;25.30;17.65;;;;;;;1.62;90.67;97394.67;1681065;85;21039;-81
2022/01/26 09:22:23;;;;;;;24.85;16.90;;;;;;;1.62;90.63;97395.95;1681202;85;20950;-81
2022/01/26 09:24:49;;;;;;;25.52;17.60;;;;;;;1.62;90.50;97402.36;1681280;85;21417;-81
2022/01/26 09:27:16;;;;;;;24.20;18.40;;;;;;;1.63;90.49;97398.45;1680680;85;20978;-81
2022/01/26 09:29:44;;;;;;;24.77;18.27;;;;;;;1.69;90.64;97399.77;1681244;85;20970;-81
2022/01/26 09:32:11;;;;;;;26.35;17.35;;;;;;;1.70;90.41;97397.10;1680711;85;20994;-81
2022/01/26 09:34:37;;;;;;;26.55;18.23;;;;;;;1.73;90.58;97395.61;1681275;85;20978;-81
2022/01/26 09:37:09;;;;;;;22.05;16.70;;;;;;;1.70;90.29;97394.53;1681423;85;20962;-81
2022/01/26 09:39:38;;;;;;;26.02;17.60;;;;;;;1.68;90.28;97395.56;1681176;85;20974;-81
2022/01/26 09:42:05;;;;;;;24.37;16.90;;;;;;;1.69;90.34;97390.34;1679854;85;21017;-80
2022/01/26 09:44:31;;;;;;;26.70;17.42;;;;;;;1.70;90.21;97391.98;1680550;85;20998;-80
2022/01/26 09:46:57;;;;;;;28.35;18.60;;;;;;;1.75;90.38;97391.66;1681230;85;20956;-80
2022/01/26 09:49:29;;;;;;;29.75;19.37;;;;;;;1.81;90.28;97396.39;1681208;85;21329;-80
2022/01/26 09:51:51;;;;;;;29.32;20.17;;;;;;;1.78;90.14;97390.17;1679675;84;21013;-80
2022/01/26 09:54:18;;;;;;;47.35;29.45;;;;;;;1.78;90.20;97396.11;1681160;85;21361;-80
2022/01/26 09:56:51;;;;;;;42.55;25.00;;;;;;;1.82;90.34;97392.91;1680468;85;20966;-80
2022/01/26 09:59:18;;;;;;;30.08;21.48;;;;;;;1.85;90.24;97387.57;1681134;85;21002;-80
2022/01/26 10:01:47;;;;;;;27.48;18.87;;;;;;;1.85;89.95;97394.44;1681352;85;20993;-80
2022/01/26 10:04:34;;;;;;;28.12;18.30;;;;;;;1.85;89.91;97388.85;1681072;85;21005;-80
2022/01/26 10:09:51;;;;;;;27.50;17.87;;;;;;;1.87;89.71;97395.16;1681325;85;20975;-80
2022/01/26 10:17:41;;;;;;;30.77;22.15;;;;;;;1.78;89.83;97395.30;1681476;85;21025;-80
2022/01/26 10:20:09;;;;;;;30.75;20.90;;;;;;;1.79;89.83;97386.25;1681389;85;21337;-80
2022/01/26 10:22:35;;;;;;;30.52;20.15;;;;;;;1.87;90.01;97379.31;1681361;85;21421;-80
2022/01/26 10:25:18;;;;;;;30.32;20.32;;;;;;;1.89;89.68;97378.75;1681364;85;21069;-80
2022/01/26 10:27:51;;;;;;;36.75;20.45;;;;;;;1.90;89.64;97378.28;1680415;85;21114;-80
2022/01/26 10:30:18;;;;;;;;;;;;;;;1.82;89.61;97380.09;1683839;85;21001;-79
2022/01/26 10:32:47;;;;;;;34.85;22.45;;;;;;;1.79;89.78;97373.90;1681299;85;20137;-79
2022/01/26 10:35:15;;;;;;;31.52;21.17;;;;;;;1.78;89.79;97374.80;1681333;85;20962;-80
2022/01/26 10:37:50;;;;;;;32.90;22.45;;;;;;;1.80;89.83;97371.70;1681402;85;20942;-80
2022/01/26 10:40:21;;;;;;;33.23;21.75;;;;;;;1.82;89.79;97372.88;1681313;85;21507;-80
2022/01/26 10:43:06;;;;;;;27.70;19.02;;;;;;;1.79;89.61;97367.03;1681181;85;21356;-80
2022/01/26 10:45:50;;;;;;;30.77;20.92;;;;;;;1.79;89.68;97366.22;1680976;85;21109;-80
2022/01/26 10:48:28;;;;;;;42.17;29.45;;;;;;;1.77;89.77;97366.28;1680428;85;21005;-80
2022/01/26 10:53:39;;;;;;;29.65;21.40;;;;;;;1.76;89.92;97356.14;1681413;85;21061;-80
2022/01/26 10:56:05;;;;;;;29.60;19.45;;;;;;;1.72;89.75;97362.41;1661714;85;21102;-80
2022/01/26 10:58:31;;;;;;;32.38;19.55;;;;;;;1.68;89.72;97365.64;1681395;85;21024;-80
2022/01/26 11:00:57;;;;;;;27.85;20.20;;;;;;;1.68;89.81;97357.95;1685349;85;21008;-80
2022/01/26 11:03:23;;;;;;;31.93;20.95;;;;;;;1.69;89.84;97360.05;1669014;86;21072;-80
2022/01/26 11:05:49;;;;;;;34.53;21.23;;;;;;;1.71;89.96;97354.36;1668900;86;21099;-80
2022/01/26 11:08:15;;;;;;;37.75;25.10;;;;;;;1.67;90.01;97352.48;1668944;86;21115;-80
2022/01/26 11:10:41;;;;;;;46.53;28.73;;;;;;;1.68;89.95;97348.17;1668797;85;21542;-80
2022/01/26 11:13:07;;;;;;;45.50;30.50;;;;;;;1.67;89.85;97342.69;1626460;86;21023;-80
2022/01/26 11:15:33;;;;;;;42.35;28.07;;;;;;;1.72;89.94;97344.01;1668997;86;21067;-79
2022/01/26 11:18:09;;;;;;;31.97;22.87;;;;;;;1.75;89.95;97339.95;1669032;86;21462;-80
2022/01/26 11:20:48;;;;;;;37.73;24.67;;;;;;;1.83;90.06;97344.58;1669326;83;21003;-80
2022/01/26 11:23:13;;;;;;;37.93;25.92;;;;;;;1.91;90.21;97344.86;1678893;84;20992;-80
2022/01/26 11:25:45;;;;;;;33.98;23.25;;;;;;;1.97;90.16;97335.95;1696208;84;21056;-80
2022/01/26 11:28:17;;;;;;;37.83;26.15;;;;;;;1.95;89.76;97333.49;1697046;84;21493;-80
2022/01/26 11:30:43;;;;;;;42.95;29.37;;;;;;;1.90;89.46;97338.09;1696906;84;21119;-79
2022/01/26 11:33:19;;;;;;;37.25;26.52;;;;;;;1.87;89.46;97328.06;1675498;84;20995;-80
2022/01/26 11:35:48;;;;;;;36.08;23.18;;;;;;;1.83;89.33;97336.06;1696839;84;21031;-80
2022/01/26 11:47:02;;;;;;;38.73;26.27;;;;;;;1.82;89.59;97318.59;1675055;84;20992;-80
2022/01/26 11:49:39;;;;;;;33.35;23.65;;;;;;;1.82;89.87;97317.77;1696909;84;21449;-80
2022/01/26 11:52:05;;;;;;;29.55;20.48;;;;;;;1.84;89.80;97318.02;1697018;84;20976;-79
2022/01/26 11:54:49;;;;;;;30.77;20.77;;;;;;;1.83;89.62;97318.95;1696991;83;20976;-80
2022/01/26 11:57:16;;;;;;;32.73;22.25;;;;;;;1.90;89.81;97314.21;1696262;84;21478;-80
2022/01/26 11:59:51;;;;;;;28.77;20.20;;;;;;;1.97;89.73;97312.88;1696913;83;21375;-80
2022/01/26 12:02:28;;;;;;;30.82;20.57;;;;;;;1.98;89.60;97311.95;1695728;84;21069;-80
2022/01/26 12:05:06;;;;;;;29.18;19.98;;;;;;;1.96;89.57;97305.66;1695874;84;20983;-80
2022/01/26 12:07:31;;;;;;;32.17;21.85;;;;;;;1.97;89.50;97302.63;1697092;84;21019;-80
2022/01/26 12:09:57;;;;;;;27.15;19.15;;;;;;;1.98;89.48;97305.08;1697114;84;21370;-80
2022/01/26 12:12:24;;;;;;;25.77;17.52;;;;;;;2.01;89.47;97305.33;1696914;84;21031;-80
2022/01/26 12:15:09;;;;;;;30.12;21.95;;;;;;;2.00;89.25;97295.54;1675337;84;21040;-80
2022/01/26 12:17:40;;;;;;;30.68;22.37;;;;;;;2.03;89.24;97297.89;1696943;84;21035;-80
2022/01/26 12:32:02;;;;;;;29.67;21.62;;;;;;;2.00;89.04;97289.59;1696403;84;21011;-80
2022/01/26 12:36:37;;;;;;;28.85;20.97;;;;;;;1.91;89.20;97287.19;1697066;84;21418;-79
2022/01/26 12:38:58;;;;;;;28.07;19.87;;;;;;;1.91;89.10;97278.22;1694268;84;21425;-80
2022/01/26 12:43:57;;;;;;;31.05;20.77;;;;;;;1.89;89.27;97274.13;1696960;84;21112;-80
2022/01/26 12:46:30;;;;;;;30.88;21.52;;;;;;;1.87;89.38;97270.86;1696803;84;21004;-80
2022/01/26 12:49:07;;;;;;;27.65;19.20;;;;;;;1.86;89.31;97273.06;1696943;84;21011;-80
2022/01/26 12:51:48;;;;;;;24.50;17.82;;;;;;;1.86;89.36;97273.89;1696584;85;21055;-80
2022/01/26 12:54:14;;;;;;;26.15;18.70;;;;;;;1.91;89.25;97271.81;1696971;84;21054;-80
2022/01/26 12:56:40;;;;;;;26.42;18.23;;;;;;;1.89;89.03;97267.72;1696827;84;20983;-80
2022/01/26 12:59:09;;;;;;;26.20;20.45;;;;;;;1.86;89.07;97267.94;1696948;84;20984;-80
2022/01/26 13:01:35;;;;;;;28.98;22.17;;;;;;;1.86;89.28;97266.66;1692557;84;21070;-80
2022/01/26 13:04:05;;;;;;;26.65;19.45;;;;;;;1.86;89.40;97273.89;1692632;85;21015;-80
2022/01/26 13:06:36;;;;;;;27.73;19.15;;;;;;;1.86;89.43;97269.22;1692422;85;21476;-80
2022/01/26 13:09:19;;;;;;;22.93;17.55;;;;;;;1.86;89.37;97272.61;1692246;85;20994;-80
2022/01/26 13:11:49;;;;;;;26.68;20.12;;;;;;;1.88;89.24;97264.81;1690105;85;21110;-80
2022/01/26 13:14:28;;;;;;;26.02;19.67;;;;;;;1.90;89.27;97264.23;1692652;85;21043;-80
2022/01/26 13:17:31;;;;;;;27.93;20.57;;;;;;;1.85;88.96;97262.46;1692373;84;20998;-80
2022/01/26 13:25:20;;;;;;;23.55;17.00;;;;;;;1.71;89.15;97255.25;1616255;86;21064;-80
2022/01/26 13:39:51;;;;;;;21.20;16.12;;;;;;;1.66;89.55;97244.98;1681714;85;22254;-80
2022/01/26 13:42:54;;;;;;;24.60;17.75;;;;;;;1.66;89.88;97243.70;1676800;85;21447;-80
2022/01/26 13:45:15;;;;;;;26.12;18.75;;;;;;;1.61;89.76;97251.67;1676877;85;21073;-79
2022/01/26 13:52:41;;;;;;;21.52;15.72;;;;;;;1.65;90.00;97265.94;1664803;86;21413;-80
2022/01/26 14:00:13;;;;;;;19.73;16.00;;;;;;;1.57;90.30;97269.47;1665177;85;21016;-80
2022/01/26 14:02:39;;;;;;;21.62;15.72;;;;;;;1.58;90.35;97268.55;1656657;86;21084;-81
2022/01/26 14:05:06;;;;;;;21.52;14.78;;;;;;;1.62;90.35;97266.13;1656701;86;21023;-79
2022/01/26 14:07:31;;;;;;;21.40;15.48;;;;;;;1.66;90.29;97271.87;1656798;87;21128;-80
2022/01/26 14:09:57;;;;;;;19.87;14.95;;;;;;;1.63;90.12;97270.81;1657397;86;21408;-80